createdAt,value
2022-12-01T00:00:41.368Z,7.25
2022-12-01T00:01:41.362Z,7.2
2022-12-01T00:02:41.397Z,7.25
2022-12-01T00:03:41.361Z,7.25
2022-12-01T00:04:41.320Z,7.25
2022-12-01T00:05:41.437Z,7.25
2022-12-01T00:06:41.333Z,7.3
2022-12-01T00:07:41.439Z,7.25
2022-12-01T00:08:41.354Z,7.25
2022-12-01T00:09:41.313Z,7.2
2022-12-01T00:10:41.340Z,7.2
2022-12-01T00:11:41.321Z,7.2
2022-12-01T00:12:41.316Z,7.2
2022-12-01T00:13:41.305Z,7.16
2022-12-01T00:14:41.359Z,7.11
2022-12-01T00:15:41.352Z,7.11
2022-12-01T00:16:41.461Z,7.11
2022-12-01T00:17:41.309Z,7.11
2022-12-01T00:18:41.369Z,7.11
2022-12-01T00:19:41.314Z,7.06
2022-12-01T00:20:41.316Z,7.11
2022-12-01T00:21:41.339Z,7.06
2022-12-01T00:22:41.317Z,7.06
2022-12-01T00:23:41.370Z,7.02
2022-12-01T00:24:41.382Z,7.06
2022-12-01T00:25:41.321Z,7.11
2022-12-01T00:26:41.312Z,7.11
2022-12-01T00:27:41.329Z,7.11
2022-12-01T00:28:41.305Z,7.06
2022-12-01T00:29:41.342Z,7.06
2022-12-01T00:30:41.306Z,7.06
2022-12-01T00:31:41.522Z,7.06
2022-12-01T00:32:41.381Z,7.06
2022-12-01T00:33:41.413Z,7.06
2022-12-01T00:34:41.329Z,7.06
2022-12-01T00:35:41.322Z,7.06
2022-12-01T00:36:41.315Z,7.02
2022-12-01T00:37:41.309Z,7.06
2022-12-01T00:38:41.319Z,7.06
2022-12-01T00:39:41.365Z,7.06
2022-12-01T00:40:41.380Z,7.02
2022-12-01T00:41:41.453Z,7.02
2022-12-01T00:42:41.537Z,7.02
2022-12-01T00:43:41.521Z,7.06
2022-12-01T00:44:41.480Z,7.06
2022-12-01T00:45:41.367Z,7.02
2022-12-01T00:46:41.333Z,7.02
2022-12-01T00:47:41.355Z,7.06
2022-12-01T00:48:41.349Z,7.06
2022-12-01T00:49:41.320Z,7.06
2022-12-01T00:50:41.315Z,7.02
2022-12-01T00:51:41.321Z,7.02
2022-12-01T00:52:41.308Z,7.06
2022-12-01T00:53:41.324Z,7.06
2022-12-01T00:54:41.397Z,7.06
2022-12-01T00:55:41.359Z,7.06
2022-12-01T00:56:41.303Z,7.06
2022-12-01T00:57:41.309Z,7.06
2022-12-01T00:58:41.307Z,7.06
2022-12-01T00:59:41.316Z,7.06
2022-12-01T01:00:41.299Z,7.06
2022-12-01T01:01:41.418Z,7.02
2022-12-01T01:02:41.447Z,7.02
2022-12-01T01:03:41.378Z,7.02
2022-12-01T01:04:41.319Z,7.02
2022-12-01T01:05:41.401Z,7.06
2022-12-01T01:06:41.315Z,7.06
2022-12-01T01:07:41.470Z,7.06
2022-12-01T01:08:41.299Z,7.11
2022-12-01T01:09:41.311Z,7.11
2022-12-01T01:10:41.353Z,7.06
2022-12-01T01:11:41.346Z,7.11
2022-12-01T01:12:41.380Z,7.11
2022-12-01T01:13:41.317Z,7.11
2022-12-01T01:14:41.314Z,7.11
2022-12-01T01:15:41.443Z,7.11
2022-12-01T01:16:41.599Z,7.11
2022-12-01T01:17:41.544Z,7.11
2022-12-01T01:18:41.369Z,7.16
2022-12-01T01:19:41.342Z,7.11
2022-12-01T01:20:41.289Z,7.11
2022-12-01T01:21:41.301Z,7.11
2022-12-01T01:22:41.304Z,7.11
2022-12-01T01:23:41.403Z,7.11
2022-12-01T01:24:41.325Z,7.11
2022-12-01T01:25:41.357Z,7.11
2022-12-01T01:26:41.367Z,7.11
2022-12-01T01:27:41.348Z,7.16
2022-12-01T01:28:41.305Z,7.16
2022-12-01T01:29:41.309Z,7.16
2022-12-01T01:30:41.341Z,7.16
2022-12-01T01:31:41.338Z,7.16
2022-12-01T01:32:41.314Z,7.11
2022-12-01T01:33:41.337Z,7.16
2022-12-01T01:34:41.354Z,7.11
2022-12-01T01:35:41.302Z,7.16
2022-12-01T01:36:41.305Z,7.11
2022-12-01T01:37:41.290Z,7.11
2022-12-01T01:38:41.305Z,7.16
2022-12-01T01:39:41.301Z,7.16
2022-12-01T01:40:41.372Z,7.16
2022-12-01T01:41:41.304Z,7.16
2022-12-01T01:42:41.344Z,7.16
2022-12-01T01:43:41.311Z,7.11
2022-12-01T01:44:41.310Z,7.11
2022-12-01T01:45:41.351Z,7.16
2022-12-01T01:46:41.354Z,7.11
2022-12-01T01:47:41.330Z,7.11
2022-12-01T01:48:41.317Z,7.11
2022-12-01T01:49:41.321Z,7.11
2022-12-01T01:50:41.340Z,7.11
2022-12-01T01:51:41.298Z,7.16
2022-12-01T01:52:41.324Z,7.11
2022-12-01T01:53:41.313Z,7.11
2022-12-01T01:54:41.322Z,7.11
2022-12-01T01:55:41.314Z,7.11
2022-12-01T01:56:41.299Z,7.11
2022-12-01T01:57:41.416Z,7.11
2022-12-01T01:58:41.347Z,7.11
2022-12-01T01:59:41.312Z,7.11
2022-12-01T02:00:41.391Z,7.11
2022-12-01T02:01:41.388Z,7.11
2022-12-01T02:02:41.362Z,7.11
2022-12-01T02:03:41.361Z,7.11
2022-12-01T02:04:41.326Z,7.11
2022-12-01T02:05:41.350Z,7.16
2022-12-01T02:06:41.386Z,7.16
2022-12-01T02:07:41.381Z,7.16
2022-12-01T02:08:41.374Z,7.11
2022-12-01T02:09:41.310Z,7.11
2022-12-01T02:10:41.324Z,7.11
2022-12-01T02:11:41.332Z,7.11
2022-12-01T02:12:41.307Z,7.11
2022-12-01T02:13:41.363Z,7.11
2022-12-01T02:14:41.402Z,7.06
2022-12-01T02:15:41.338Z,7.11
2022-12-01T02:16:41.325Z,7.06
2022-12-01T02:17:42.029Z,7.06
2022-12-01T02:18:41.358Z,7.02
2022-12-01T02:19:41.318Z,7.06
2022-12-01T02:20:41.302Z,7.02
2022-12-01T02:21:41.344Z,7.02
2022-12-01T02:22:41.302Z,7.02
2022-12-01T02:23:41.300Z,7.02
2022-12-01T02:24:41.309Z,7.02
2022-12-01T02:25:41.302Z,6.97
2022-12-01T02:26:41.309Z,6.97
2022-12-01T02:27:41.317Z,6.97
2022-12-01T02:28:41.298Z,6.97
2022-12-01T02:29:41.421Z,6.97
2022-12-01T02:30:41.373Z,6.97
2022-12-01T02:31:41.298Z,6.97
2022-12-01T02:32:41.299Z,6.97
2022-12-01T02:33:41.397Z,6.97
2022-12-01T02:34:41.546Z,6.97
2022-12-01T02:35:41.321Z,6.97
2022-12-01T02:36:41.311Z,7.02
2022-12-01T02:37:41.562Z,7.02
2022-12-01T02:38:41.625Z,7.02
2022-12-01T02:39:41.626Z,7.02
2022-12-01T02:40:41.326Z,7.02
2022-12-01T02:41:41.298Z,6.97
2022-12-01T02:42:41.303Z,6.97
2022-12-01T02:43:41.309Z,6.97
2022-12-01T02:44:41.640Z,6.97
2022-12-01T02:45:41.398Z,6.97
2022-12-01T02:46:41.310Z,6.97
2022-12-01T02:47:41.316Z,6.97
2022-12-01T02:48:41.413Z,7.02
2022-12-01T02:49:41.545Z,7.02
2022-12-01T02:50:41.297Z,7.02
2022-12-01T02:51:41.316Z,7.02
2022-12-01T02:52:41.353Z,6.97
2022-12-01T02:53:41.349Z,7.02
2022-12-01T02:54:41.631Z,6.97
2022-12-01T02:55:41.359Z,6.97
2022-12-01T02:56:41.298Z,6.97
2022-12-01T02:57:41.295Z,6.97
2022-12-01T02:58:41.303Z,6.97
2022-12-01T02:59:41.660Z,6.97
2022-12-01T03:00:41.358Z,6.97
2022-12-01T03:01:41.498Z,6.97
2022-12-01T03:02:41.330Z,6.92
2022-12-01T03:03:41.312Z,6.97
2022-12-01T03:04:41.304Z,6.97
2022-12-01T03:05:41.291Z,6.97
2022-12-01T03:06:41.340Z,6.97
2022-12-01T03:07:41.350Z,6.97
2022-12-01T03:08:41.347Z,6.97
2022-12-01T03:09:41.350Z,6.97
2022-12-01T03:10:41.424Z,6.92
2022-12-01T03:11:41.293Z,6.92
2022-12-01T03:12:41.299Z,6.92
2022-12-01T03:13:41.309Z,6.97
2022-12-01T03:14:41.347Z,6.97
2022-12-01T03:15:41.367Z,6.92
2022-12-01T03:16:41.337Z,6.92
2022-12-01T03:17:41.384Z,6.92
2022-12-01T03:18:41.324Z,6.92
2022-12-01T03:19:41.314Z,6.92
2022-12-01T03:20:41.389Z,6.92
2022-12-01T03:21:41.306Z,6.88
2022-12-01T03:22:41.295Z,6.88
2022-12-01T03:23:41.384Z,6.88
2022-12-01T03:24:41.380Z,6.88
2022-12-01T03:25:41.292Z,6.88
2022-12-01T03:26:41.311Z,6.88
2022-12-01T03:27:44.089Z,6.88
2022-12-01T03:28:41.325Z,6.88
2022-12-01T03:29:41.316Z,6.88
2022-12-01T03:30:41.308Z,6.88
2022-12-01T03:31:41.354Z,6.88
2022-12-01T03:32:41.337Z,6.88
2022-12-01T03:33:41.327Z,6.88
2022-12-01T03:34:41.307Z,6.88
2022-12-01T03:35:41.285Z,6.88
2022-12-01T03:36:41.286Z,6.88
2022-12-01T03:37:41.303Z,6.92
2022-12-01T03:38:41.288Z,6.92
2022-12-01T03:39:41.344Z,6.92
2022-12-01T03:40:41.358Z,6.92
2022-12-01T03:41:41.292Z,6.92
2022-12-01T03:42:41.294Z,6.92
2022-12-01T03:43:41.312Z,6.92
2022-12-01T03:44:41.309Z,6.92
2022-12-01T03:45:41.318Z,6.88
2022-12-01T03:46:41.416Z,6.88
2022-12-01T03:47:41.360Z,6.92
2022-12-01T03:48:41.359Z,6.92
2022-12-01T03:49:41.303Z,6.92
2022-12-01T03:50:41.287Z,6.92
2022-12-01T03:51:41.335Z,6.92
2022-12-01T03:52:41.288Z,6.92
2022-12-01T03:53:41.291Z,6.92
2022-12-01T03:54:41.333Z,6.88
2022-12-01T03:55:41.336Z,6.88
2022-12-01T03:56:41.413Z,6.92
2022-12-01T03:57:41.285Z,6.88
2022-12-01T03:58:41.362Z,6.88
2022-12-01T03:59:41.288Z,6.92
2022-12-01T04:00:41.289Z,6.92
2022-12-01T04:01:41.357Z,6.92
2022-12-01T04:02:41.408Z,6.97
2022-12-01T04:03:41.366Z,6.97
2022-12-01T04:04:41.352Z,6.97
2022-12-01T04:05:41.301Z,6.92
2022-12-01T04:06:41.297Z,6.88
2022-12-01T04:07:41.351Z,6.88
2022-12-01T04:08:41.285Z,6.88
2022-12-01T04:09:41.332Z,6.92
2022-12-01T04:10:41.295Z,6.92
2022-12-01T04:11:41.356Z,6.92
2022-12-01T04:12:41.326Z,6.97
2022-12-01T04:13:41.298Z,6.97
2022-12-01T04:14:41.389Z,6.97
2022-12-01T04:15:41.340Z,6.97
2022-12-01T04:16:41.295Z,6.97
2022-12-01T04:17:41.302Z,7.02
2022-12-01T04:18:41.314Z,6.97
2022-12-01T04:19:41.355Z,7.02
2022-12-01T04:20:41.331Z,7.02
2022-12-01T04:21:41.300Z,7.06
2022-12-01T04:22:41.316Z,7.06
2022-12-01T04:23:41.292Z,7.02
2022-12-01T04:24:41.338Z,7.02
2022-12-01T04:25:41.285Z,7.02
2022-12-01T04:26:41.445Z,7.02
2022-12-01T04:27:41.351Z,7.02
2022-12-01T04:28:41.384Z,7.02
2022-12-01T04:29:41.430Z,7.06
2022-12-01T04:30:41.444Z,7.11
2022-12-01T04:31:41.397Z,7.06
2022-12-01T04:32:41.420Z,7.06
2022-12-01T04:33:41.508Z,7.11
2022-12-01T04:34:41.553Z,7.11
2022-12-01T04:35:41.580Z,7.06
2022-12-01T04:36:41.604Z,7.06
2022-12-01T04:37:41.664Z,7.06
2022-12-01T04:38:41.626Z,7.02
2022-12-01T04:39:41.316Z,7.02
2022-12-01T04:40:41.477Z,7.02
2022-12-01T04:41:41.296Z,7.02
2022-12-01T04:42:41.352Z,7.06
2022-12-01T04:43:41.324Z,7.06
2022-12-01T04:44:41.298Z,7.06
2022-12-01T04:45:41.303Z,7.06
2022-12-01T04:46:41.349Z,7.06
2022-12-01T04:47:41.277Z,7.06
2022-12-01T04:48:41.312Z,7.06
2022-12-01T04:49:41.301Z,7.06
2022-12-01T04:50:41.336Z,7.02
2022-12-01T04:51:41.329Z,7.06
2022-12-01T04:52:41.303Z,7.02
2022-12-01T04:53:41.335Z,7.02
2022-12-01T04:54:41.327Z,7.06
2022-12-01T04:55:41.295Z,7.06
2022-12-01T04:56:41.285Z,7.06
2022-12-01T04:57:41.286Z,7.02
2022-12-01T04:58:41.351Z,7.02
2022-12-01T04:59:41.353Z,6.97
2022-12-01T05:00:41.410Z,7.02
2022-12-01T05:01:41.370Z,6.97
2022-12-01T05:02:41.284Z,6.92
2022-12-01T05:03:41.302Z,6.97
2022-12-01T05:04:41.347Z,6.92
2022-12-01T05:05:41.431Z,6.92
2022-12-01T05:06:41.389Z,6.88
2022-12-01T05:07:41.527Z,6.92
2022-12-01T05:08:41.311Z,6.92
2022-12-01T05:09:41.482Z,6.92
2022-12-01T05:10:41.307Z,6.92
2022-12-01T05:11:41.279Z,6.92
2022-12-01T05:12:41.284Z,6.88
2022-12-01T05:13:41.292Z,6.92
2022-12-01T05:14:41.349Z,6.92
2022-12-01T05:15:41.311Z,6.92
2022-12-01T05:16:41.351Z,6.92
2022-12-01T05:17:41.284Z,6.92
2022-12-01T05:18:41.410Z,6.92
2022-12-01T05:19:41.314Z,6.92
2022-12-01T05:20:41.295Z,6.92
2022-12-01T05:21:41.447Z,6.92
2022-12-01T05:23:04.373Z,6.92
2022-12-01T05:23:41.289Z,6.92
2022-12-01T05:24:41.325Z,6.92
2022-12-01T05:25:41.283Z,6.97
2022-12-01T05:26:41.386Z,6.97
2022-12-01T05:27:41.283Z,6.97
2022-12-01T05:28:41.300Z,6.92
2022-12-01T05:29:41.394Z,6.92
2022-12-01T05:30:41.344Z,6.92
2022-12-01T05:31:41.414Z,6.92
2022-12-01T05:32:41.283Z,6.92
2022-12-01T05:33:41.304Z,6.92
2022-12-01T05:34:41.296Z,6.92
2022-12-01T05:35:41.280Z,6.92
2022-12-01T05:36:41.293Z,6.92
2022-12-01T05:37:41.347Z,6.92
2022-12-01T05:38:41.344Z,6.88
2022-12-01T05:39:41.316Z,6.88
2022-12-01T05:40:41.284Z,6.88
2022-12-01T05:41:41.288Z,6.83
2022-12-01T05:42:41.320Z,6.88
2022-12-01T05:43:41.277Z,6.88
2022-12-01T05:44:41.321Z,6.92
2022-12-01T05:45:41.398Z,6.92
2022-12-01T05:46:41.373Z,6.92
2022-12-01T05:47:41.335Z,6.92
2022-12-01T05:48:41.419Z,6.92
2022-12-01T05:49:41.310Z,6.92
2022-12-01T05:50:41.303Z,6.92
2022-12-01T05:51:41.337Z,6.97
2022-12-01T05:52:41.274Z,6.97
2022-12-01T05:53:41.329Z,6.92
2022-12-01T05:54:41.363Z,6.97
2022-12-01T05:55:41.320Z,6.97
2022-12-01T05:56:41.279Z,6.92
2022-12-01T05:57:41.301Z,6.97
2022-12-01T05:58:41.297Z,6.92
2022-12-01T05:59:41.342Z,6.97
2022-12-01T06:00:45.648Z,6.97
2022-12-01T06:01:41.401Z,6.97
2022-12-01T06:02:41.416Z,6.97
2022-12-01T06:03:41.352Z,6.97
2022-12-01T06:04:41.286Z,6.97
2022-12-01T06:05:41.297Z,6.97
2022-12-01T06:06:41.284Z,6.97
2022-12-01T06:07:41.326Z,6.97
2022-12-01T06:08:41.381Z,6.97
2022-12-01T06:09:41.352Z,6.97
2022-12-01T06:10:41.410Z,6.97
2022-12-01T06:11:41.290Z,6.97
2022-12-01T06:12:41.277Z,6.97
2022-12-01T06:13:41.387Z,6.97
2022-12-01T06:14:41.292Z,6.92
2022-12-01T06:15:41.283Z,6.97
2022-12-01T06:16:41.379Z,7.02
2022-12-01T06:17:41.316Z,7.06
2022-12-01T06:18:41.299Z,7.02
2022-12-01T06:19:41.303Z,7.02
2022-12-01T06:20:41.291Z,7.02
2022-12-01T06:21:41.299Z,7.02
2022-12-01T06:22:41.282Z,7.02
2022-12-01T06:23:41.282Z,7.02
2022-12-01T06:24:41.367Z,6.97
2022-12-01T06:25:41.318Z,6.92
2022-12-01T06:26:41.583Z,6.92
2022-12-01T06:27:41.302Z,6.88
2022-12-01T06:28:41.291Z,6.88
2022-12-01T06:29:48.266Z,6.88
2022-12-01T06:30:41.297Z,6.88
2022-12-01T06:31:41.383Z,6.83
2022-12-01T06:32:41.355Z,6.83
2022-12-01T06:33:41.339Z,6.83
2022-12-01T06:34:41.296Z,6.83
2022-12-01T06:35:41.293Z,6.83
2022-12-01T06:36:41.274Z,6.83
2022-12-01T06:37:41.274Z,6.83
2022-12-01T06:38:41.300Z,6.83
2022-12-01T06:39:41.300Z,6.83
2022-12-01T06:40:41.349Z,6.79
2022-12-01T06:41:41.320Z,6.79
2022-12-01T06:42:41.279Z,6.79
2022-12-01T06:43:41.272Z,6.79
2022-12-01T06:44:41.297Z,6.79
2022-12-01T06:45:41.349Z,6.79
2022-12-01T06:46:41.277Z,6.79
2022-12-01T06:47:41.291Z,6.79
2022-12-01T06:48:41.339Z,6.74
2022-12-01T06:49:41.285Z,6.74
2022-12-01T06:50:41.280Z,6.7
2022-12-01T06:51:41.297Z,6.7
2022-12-01T06:52:41.291Z,6.7
2022-12-01T06:53:41.300Z,6.61
2022-12-01T06:54:41.288Z,6.61
2022-12-01T06:55:41.276Z,6.61
2022-12-01T06:56:41.368Z,6.61
2022-12-01T06:57:41.308Z,6.61
2022-12-01T06:58:41.419Z,6.65
2022-12-01T06:59:41.282Z,6.61
2022-12-01T07:00:41.370Z,6.61
2022-12-01T07:01:41.517Z,6.65
2022-12-01T07:02:41.378Z,6.65
2022-12-01T07:03:41.307Z,6.61
2022-12-01T07:04:41.355Z,6.7
2022-12-01T07:05:41.279Z,6.7
2022-12-01T07:06:41.311Z,6.7
2022-12-01T07:07:41.339Z,6.74
2022-12-01T07:08:41.284Z,6.79
2022-12-01T07:09:41.536Z,6.79
2022-12-01T07:10:41.601Z,6.79
2022-12-01T07:11:41.627Z,6.83
2022-12-01T07:12:41.572Z,6.83
2022-12-01T07:13:41.549Z,6.83
2022-12-01T07:14:41.476Z,6.88
2022-12-01T07:15:41.304Z,6.88
2022-12-01T07:16:41.363Z,6.97
2022-12-01T07:17:41.275Z,6.97
2022-12-01T07:18:41.312Z,6.97
2022-12-01T07:19:41.371Z,6.97
2022-12-01T07:20:41.318Z,6.97
2022-12-01T07:21:41.271Z,7.02
2022-12-01T07:22:41.281Z,6.97
2022-12-01T07:23:41.302Z,6.97
2022-12-01T07:24:41.295Z,6.92
2022-12-01T07:25:41.305Z,6.92
2022-12-01T07:26:41.388Z,6.92
2022-12-01T07:27:41.321Z,6.92
2022-12-01T07:28:41.352Z,6.92
2022-12-01T07:29:41.295Z,6.92
2022-12-01T07:30:41.352Z,6.97
2022-12-01T07:31:41.273Z,7.02
2022-12-01T07:32:41.273Z,6.97
2022-12-01T07:33:41.304Z,6.97
2022-12-01T07:34:41.294Z,7.02
2022-12-01T07:35:41.332Z,7.02
2022-12-01T07:36:41.282Z,7.02
2022-12-01T07:37:41.293Z,6.97
2022-12-01T07:38:41.291Z,7.02
2022-12-01T07:39:41.295Z,7.06
2022-12-01T07:40:41.273Z,7.06
2022-12-01T07:41:41.268Z,7.02
2022-12-01T07:42:41.283Z,7.02
2022-12-01T07:43:41.332Z,7.06
2022-12-01T07:44:41.385Z,7.02
2022-12-01T07:45:41.353Z,7.02
2022-12-01T07:46:41.336Z,7.02
2022-12-01T07:47:41.291Z,7.06
2022-12-01T07:48:41.307Z,7.02
2022-12-01T07:49:41.285Z,7.06
2022-12-01T07:50:41.287Z,7.06
2022-12-01T07:51:45.996Z,7.06
2022-12-01T07:52:41.661Z,7.06
2022-12-01T07:53:41.428Z,7.06
2022-12-01T07:54:41.331Z,7.02
2022-12-01T07:55:41.288Z,7.06
2022-12-01T07:56:41.311Z,7.06
2022-12-01T07:57:41.321Z,7.06
2022-12-01T07:58:41.353Z,7.11
2022-12-01T07:59:41.388Z,7.11
2022-12-01T08:00:41.316Z,7.06
2022-12-01T08:01:44.421Z,7.06
2022-12-01T08:02:41.363Z,7.11
2022-12-01T08:03:41.298Z,7.11
2022-12-01T08:04:41.327Z,7.11
2022-12-01T08:05:41.311Z,7.11
2022-12-01T08:06:41.326Z,7.11
2022-12-01T08:07:41.372Z,7.06
2022-12-01T08:08:41.326Z,7.11
2022-12-01T08:09:41.341Z,7.06
2022-12-01T08:10:41.304Z,7.06
2022-12-01T08:11:41.260Z,7.06
2022-12-01T08:12:41.329Z,7.11
2022-12-01T08:13:41.309Z,7.11
2022-12-01T08:14:41.365Z,7.11
2022-12-01T08:15:41.337Z,7.11
2022-12-01T08:16:41.300Z,7.11
2022-12-01T08:17:41.384Z,7.06
2022-12-01T08:18:41.435Z,7.06
2022-12-01T08:19:41.430Z,7.11
2022-12-01T08:20:41.345Z,7.06
2022-12-01T08:21:41.308Z,7.11
2022-12-01T08:22:41.331Z,7.11
2022-12-01T08:23:41.281Z,7.11
2022-12-01T08:24:41.297Z,7.11
2022-12-01T08:25:41.275Z,7.06
2022-12-01T08:26:41.316Z,7.06
2022-12-01T08:27:41.283Z,7.06
2022-12-01T08:28:41.268Z,7.11
2022-12-01T08:29:41.323Z,7.11
2022-12-01T08:30:41.422Z,7.11
2022-12-01T08:31:41.400Z,7.16
2022-12-01T08:32:41.457Z,7.11
2022-12-01T08:33:41.647Z,7.11
2022-12-01T08:34:41.393Z,7.11
2022-12-01T08:35:41.266Z,7.11
2022-12-01T08:36:41.312Z,7.11
2022-12-01T08:37:41.346Z,7.16
2022-12-01T08:38:41.331Z,7.16
2022-12-01T08:39:41.304Z,7.16
2022-12-01T08:40:41.283Z,7.16
2022-12-01T08:41:41.310Z,7.16
2022-12-01T08:42:41.315Z,7.16
2022-12-01T08:43:57.220Z,7.16
2022-12-01T08:44:41.395Z,7.16
2022-12-01T08:45:41.348Z,7.16
2022-12-01T08:46:41.383Z,7.2
2022-12-01T08:47:41.264Z,7.2
2022-12-01T08:48:41.329Z,7.16
2022-12-01T08:49:41.320Z,7.2
2022-12-01T08:50:41.301Z,7.2
2022-12-01T08:51:41.285Z,7.2
2022-12-01T08:52:41.271Z,7.25
2022-12-01T08:53:45.327Z,7.25
2022-12-01T08:54:41.324Z,7.25
2022-12-01T08:55:41.334Z,7.25
2022-12-01T08:56:41.347Z,7.2
2022-12-01T08:57:41.484Z,7.25
2022-12-01T08:58:41.319Z,7.2
2022-12-01T08:59:41.286Z,7.2
2022-12-01T09:00:41.314Z,7.2
2022-12-01T09:01:41.532Z,7.2
2022-12-01T09:02:41.433Z,7.2
2022-12-01T09:03:41.301Z,7.2
2022-12-01T09:04:41.289Z,7.25
2022-12-01T09:05:41.294Z,7.2
2022-12-01T09:06:41.309Z,7.2
2022-12-01T09:07:41.315Z,7.25
2022-12-01T09:08:41.286Z,7.25
2022-12-01T09:09:41.392Z,7.3
2022-12-01T09:10:41.323Z,7.3
2022-12-01T09:11:41.294Z,7.35
2022-12-01T09:12:41.300Z,7.35
2022-12-01T09:13:41.318Z,7.3
2022-12-01T09:14:41.318Z,7.3
2022-12-01T09:15:41.280Z,7.3
2022-12-01T09:16:41.366Z,7.35
2022-12-01T09:17:41.324Z,7.4
2022-12-01T09:18:41.292Z,7.35
2022-12-01T09:19:41.276Z,7.35
2022-12-01T09:20:41.294Z,7.3
2022-12-01T09:21:41.360Z,7.3
2022-12-01T09:22:41.297Z,7.3
2022-12-01T09:23:41.297Z,7.3
2022-12-01T09:24:41.324Z,7.3
2022-12-01T09:25:41.365Z,7.25
2022-12-01T09:26:41.291Z,7.25
2022-12-01T09:27:41.273Z,7.3
2022-12-01T09:28:41.260Z,7.3
2022-12-01T09:29:41.312Z,7.3
2022-12-01T09:30:41.272Z,7.3
2022-12-01T09:31:41.467Z,7.3
2022-12-01T09:32:41.342Z,7.3
2022-12-01T09:33:41.353Z,7.3
2022-12-01T09:34:41.275Z,7.25
2022-12-01T09:35:41.277Z,7.25
2022-12-01T09:36:41.265Z,7.25
2022-12-01T09:37:41.296Z,7.25
2022-12-01T09:38:41.298Z,7.3
2022-12-01T09:39:41.273Z,7.3
2022-12-01T09:40:41.313Z,7.3
2022-12-01T09:41:41.310Z,7.3
2022-12-01T09:42:41.311Z,7.3
2022-12-01T09:43:41.268Z,7.3
2022-12-01T09:44:41.294Z,7.3
2022-12-01T09:45:41.314Z,7.35
2022-12-01T09:46:41.536Z,7.4
2022-12-01T09:47:41.269Z,7.35
2022-12-01T09:48:41.324Z,7.4
2022-12-01T09:49:41.384Z,7.4
2022-12-01T09:50:41.272Z,7.4
2022-12-01T09:51:41.272Z,7.35
2022-12-01T09:52:41.269Z,7.35
2022-12-01T09:53:41.297Z,7.3
2022-12-01T09:54:41.319Z,7.4
2022-12-01T09:55:41.256Z,7.44
2022-12-01T09:56:41.327Z,7.4
2022-12-01T09:57:41.334Z,7.4
2022-12-01T09:58:41.267Z,7.3
2022-12-01T09:59:41.316Z,7.3
2022-12-01T10:00:41.332Z,7.35
2022-12-01T10:01:41.332Z,7.3
2022-12-01T10:02:41.338Z,7.3
2022-12-01T10:03:41.303Z,7.2
2022-12-01T10:04:41.325Z,7.2
2022-12-01T10:06:02.907Z,7.25
2022-12-01T10:06:41.329Z,7.3
2022-12-01T10:07:41.333Z,7.3
2022-12-01T10:08:41.261Z,7.3
2022-12-01T10:09:41.293Z,7.3
2022-12-01T10:10:41.341Z,7.3
2022-12-01T10:11:41.296Z,7.25
2022-12-01T10:12:41.368Z,7.25
2022-12-01T10:13:43.707Z,7.3
2022-12-01T10:14:41.366Z,7.3
2022-12-01T10:15:41.269Z,7.3
2022-12-01T10:16:41.301Z,7.3
2022-12-01T10:17:41.305Z,7.3
2022-12-01T10:18:41.323Z,7.3
2022-12-01T10:19:41.268Z,7.3
2022-12-01T10:20:41.343Z,7.3
2022-12-01T10:21:41.306Z,7.25
2022-12-01T10:22:41.267Z,7.2
2022-12-01T10:23:41.267Z,7.2
2022-12-01T10:24:41.276Z,7.2
2022-12-01T10:25:41.290Z,7.16
2022-12-01T10:26:41.262Z,7.16
2022-12-01T10:27:41.296Z,7.2
2022-12-01T10:28:41.354Z,7.25
2022-12-01T10:29:47.268Z,7.2
2022-12-01T10:30:41.270Z,7.25
2022-12-01T10:31:41.330Z,7.25
2022-12-01T10:32:41.285Z,7.2
2022-12-01T10:33:41.334Z,7.25
2022-12-01T10:34:41.335Z,7.3
2022-12-01T10:35:41.267Z,7.3
2022-12-01T10:36:41.321Z,7.3
2022-12-01T10:37:41.303Z,7.3
2022-12-01T10:38:41.282Z,7.35
2022-12-01T10:39:41.283Z,7.35
2022-12-01T10:40:41.330Z,7.3
2022-12-01T10:41:41.305Z,7.3
2022-12-01T10:42:41.304Z,7.35
2022-12-01T10:43:41.314Z,7.35
2022-12-01T10:44:41.371Z,7.4
2022-12-01T10:45:41.349Z,7.44
2022-12-01T10:46:41.297Z,7.44
2022-12-01T10:47:41.265Z,7.49
2022-12-01T10:48:41.299Z,7.54
2022-12-01T10:49:41.302Z,7.49
2022-12-01T10:50:41.314Z,7.49
2022-12-01T10:51:41.393Z,7.49
2022-12-01T10:52:41.359Z,7.49
2022-12-01T10:53:41.272Z,7.49
2022-12-01T10:54:41.476Z,7.54
2022-12-01T10:55:46.489Z,7.59
2022-12-01T10:56:41.298Z,7.54
2022-12-01T10:57:41.289Z,7.54
2022-12-01T10:58:41.304Z,7.59
2022-12-01T10:59:41.332Z,7.64
2022-12-01T11:00:59.046Z,7.59
2022-12-01T11:01:41.414Z,7.64
2022-12-01T11:02:41.435Z,7.69
2022-12-01T11:03:41.415Z,7.69
2022-12-01T11:04:41.289Z,7.64
2022-12-01T11:05:41.345Z,7.74
2022-12-01T11:06:41.254Z,7.84
2022-12-01T11:07:41.351Z,7.84
2022-12-01T11:08:41.349Z,7.89
2022-12-01T11:09:41.303Z,7.89
2022-12-01T11:10:41.296Z,7.95
2022-12-01T11:11:41.276Z,7.89
2022-12-01T11:12:41.292Z,7.84
2022-12-01T11:13:41.294Z,7.79
2022-12-01T11:14:41.333Z,7.79
2022-12-01T11:15:41.328Z,7.79
2022-12-01T11:16:41.540Z,7.79
2022-12-01T11:17:41.305Z,7.84
2022-12-01T11:18:41.375Z,7.89
2022-12-01T11:19:41.454Z,7.89
2022-12-01T11:20:41.382Z,7.84
2022-12-01T11:21:41.278Z,7.95
2022-12-01T11:22:41.305Z,7.89
2022-12-01T11:23:41.329Z,7.89
2022-12-01T11:24:41.284Z,7.79
2022-12-01T11:25:41.301Z,7.79
2022-12-01T11:26:41.265Z,7.74
2022-12-01T11:27:41.266Z,7.79
2022-12-01T11:28:41.268Z,7.79
2022-12-01T11:29:41.318Z,7.79
2022-12-01T11:30:41.304Z,7.84
2022-12-01T11:31:41.383Z,7.89
2022-12-01T11:32:41.315Z,7.89
2022-12-01T11:33:41.294Z,7.89
2022-12-01T11:34:41.300Z,7.79
2022-12-01T11:35:41.285Z,7.84
2022-12-01T11:36:41.299Z,7.84
2022-12-01T11:37:41.954Z,7.84
2022-12-01T11:38:41.321Z,7.89
2022-12-01T11:39:41.357Z,7.89
2022-12-01T11:40:41.301Z,7.84
2022-12-01T11:41:41.281Z,7.84
2022-12-01T11:42:41.264Z,7.89
2022-12-01T11:43:46.509Z,7.89
2022-12-01T11:44:51.333Z,7.95
2022-12-01T11:45:41.332Z,7.89
2022-12-01T11:46:50.133Z,7.95
2022-12-01T11:47:41.313Z,8
2022-12-01T11:48:41.340Z,7.95
2022-12-01T11:49:46.907Z,7.95
2022-12-01T11:50:41.268Z,7.89
2022-12-01T11:51:41.271Z,7.79
2022-12-01T11:52:41.266Z,7.79
2022-12-01T11:53:41.296Z,7.84
2022-12-01T11:54:41.455Z,7.84
2022-12-01T11:55:41.326Z,7.84
2022-12-01T11:56:41.269Z,7.84
2022-12-01T11:57:41.289Z,7.89
2022-12-01T11:58:41.332Z,8
2022-12-01T11:59:41.270Z,8
2022-12-01T12:00:41.273Z,8
2022-12-01T12:01:41.266Z,8.1
2022-12-01T12:02:41.400Z,8.15
2022-12-01T12:03:41.440Z,8.15
2022-12-01T12:04:41.301Z,8.15
2022-12-01T12:05:41.321Z,8.26
2022-12-01T12:06:41.266Z,8.37
2022-12-01T12:07:41.374Z,8.37
2022-12-01T12:08:41.331Z,8.48
2022-12-01T12:09:45.893Z,8.87
2022-12-01T12:10:41.346Z,9.27
2022-12-01T12:11:41.331Z,9.21
2022-12-01T12:12:41.279Z,9.1
2022-12-01T12:13:41.287Z,8.98
2022-12-01T12:14:41.272Z,8.92
2022-12-01T12:15:41.323Z,8.81
2022-12-01T12:16:41.286Z,8.75
2022-12-01T12:17:41.392Z,8.64
2022-12-01T12:18:41.368Z,8.59
2022-12-01T12:20:00.361Z,8.48
2022-12-01T12:20:41.309Z,8.42
2022-12-01T12:21:41.262Z,8.42
2022-12-01T12:22:41.272Z,8.42
2022-12-01T12:23:41.262Z,8.31
2022-12-01T12:24:41.274Z,8.37
2022-12-01T12:25:41.253Z,8.31
2022-12-01T12:26:41.353Z,8.31
2022-12-01T12:27:42.657Z,8.42
2022-12-01T12:28:41.281Z,8.42
2022-12-01T12:29:41.277Z,8.31
2022-12-01T12:30:41.372Z,8.31
2022-12-01T12:31:41.263Z,8.31
2022-12-01T12:32:41.280Z,8.26
2022-12-01T12:33:41.312Z,8.37
2022-12-01T12:34:41.355Z,8.53
2022-12-01T12:35:41.255Z,8.81
2022-12-01T12:36:41.297Z,9.04
2022-12-01T12:37:41.298Z,9.15
2022-12-01T12:38:41.281Z,9.15
2022-12-01T12:39:41.278Z,9.1
2022-12-01T12:40:41.261Z,8.87
2022-12-01T12:41:41.360Z,8.87
2022-12-01T12:42:41.352Z,8.75
2022-12-01T12:43:41.269Z,8.75
2022-12-01T12:44:41.326Z,8.75
2022-12-01T12:45:41.325Z,8.7
2022-12-01T12:46:41.343Z,8.81
2022-12-01T12:47:41.263Z,8.98
2022-12-01T12:49:03.518Z,9.15
2022-12-01T12:49:41.344Z,9.39
2022-12-01T12:50:41.408Z,9.33
2022-12-01T12:51:41.265Z,9.21
2022-12-01T12:52:41.304Z,9.15
2022-12-01T12:53:41.295Z,9.1
2022-12-01T12:54:41.270Z,9.04
2022-12-01T12:55:41.302Z,8.92
2022-12-01T12:56:41.280Z,8.64
2022-12-01T12:57:41.406Z,8.48
2022-12-01T12:58:41.341Z,8.26
2022-12-01T12:59:41.288Z,8.21
2022-12-01T13:00:41.291Z,8.1
2022-12-01T13:01:41.394Z,7.89
2022-12-01T13:02:41.355Z,7.84
2022-12-01T13:03:41.327Z,7.79
2022-12-01T13:04:41.296Z,7.74
2022-12-01T13:05:41.509Z,7.79
2022-12-01T13:06:41.344Z,7.74
2022-12-01T13:07:41.313Z,7.74
2022-12-01T13:08:41.320Z,7.79
2022-12-01T13:09:41.319Z,7.74
2022-12-01T13:10:41.260Z,7.69
2022-12-01T13:11:41.324Z,7.59
2022-12-01T13:12:41.279Z,7.59
2022-12-01T13:13:41.330Z,7.54
2022-12-01T13:14:41.425Z,7.54
2022-12-01T13:15:41.336Z,7.54
2022-12-01T13:16:41.316Z,7.49
2022-12-01T13:17:41.321Z,7.44
2022-12-01T13:18:41.292Z,7.44
2022-12-01T13:19:41.324Z,7.54
2022-12-01T13:20:41.288Z,7.54
2022-12-01T13:21:41.449Z,7.54
2022-12-01T13:22:41.448Z,7.59